sensor_id;sensor_type;location;lat;lon;timestamp;pressure;altitude;pressure_sealevel;temperature;humidity
32033;BME280;31720;52.638;9.216;2023-04-04T00:00:28;102823.53;;;2.15;77.98
32033;BME280;31720;52.638;9.216;2023-04-04T00:03:30;102827.78;;;2.10;78.04
32033;BME280;31720;52.638;9.216;2023-04-04T00:06:33;102824.25;;;2.05;78.59
32033;BME280;31720;52.638;9.216;2023-04-04T00:09:35;102824.16;;;1.98;78.44
32033;BME280;31720;52.638;9.216;2023-04-04T00:12:36;102825.81;;;1.95;78.67
32033;BME280;31720;52.638;9.216;2023-04-04T00:15:37;102823.22;;;1.95;80.01
32033;BME280;31720;52.638;9.216;2023-04-04T00:18:39;102819.75;;;1.93;79.77
32033;BME280;31720;52.638;9.216;2023-04-04T00:21:42;102824.00;;;1.89;79.04
32033;BME280;31720;52.638;9.216;2023-04-04T00:24:43;102815.38;;;1.90;80.41
32033;BME280;31720;52.638;9.216;2023-04-04T00:27:46;102816.16;;;1.85;79.01
32033;BME280;31720;52.638;9.216;2023-04-04T00:30:47;102810.94;;;1.83;79.20
32033;BME280;31720;52.638;9.216;2023-04-04T00:33:49;102813.50;;;1.82;80.15
32033;BME280;31720;52.638;9.216;2023-04-04T00:36:52;102806.56;;;1.77;77.83
32033;BME280;31720;52.638;9.216;2023-04-04T00:39:53;102801.44;;;1.82;79.57
32033;BME280;31720;52.638;9.216;2023-04-04T00:42:55;102804.78;;;1.76;78.81
32033;BME280;31720;52.638;9.216;2023-04-04T00:45:58;102803.13;;;1.80;78.87
32033;BME280;31720;52.638;9.216;2023-04-04T00:49:00;102803.03;;;1.74;78.62
32033;BME280;31720;52.638;9.216;2023-04-04T00:52:03;102808.84;;;1.61;78.08
32033;BME280;31720;52.638;9.216;2023-04-04T00:55:06;102804.41;;;1.53;78.73
32033;BME280;31720;52.638;9.216;2023-04-04T00:58:09;102801.84;;;1.55;79.23
32033;BME280;31720;52.638;9.216;2023-04-04T01:01:11;102807.00;;;1.53;79.39
32033;BME280;31720;52.638;9.216;2023-04-04T01:04:12;102806.91;;;1.49;80.16
32033;BME280;31720;52.638;9.216;2023-04-04T01:07:15;102799.97;;;1.46;80.24
32033;BME280;31720;52.638;9.216;2023-04-04T01:10:17;102803.44;;;1.48;80.09
32033;BME280;31720;52.638;9.216;2023-04-04T01:13:19;102795.66;;;1.47;79.95
32033;BME280;31720;52.638;9.216;2023-04-04T01:16:21;102796.38;;;1.38;79.09
32033;BME280;31720;52.638;9.216;2023-04-04T01:19:29;102787.59;;;1.32;79.99
32033;BME280;31720;52.638;9.216;2023-04-04T01:22:32;102789.38;;;1.33;81.17
32033;BME280;31720;52.638;9.216;2023-04-04T01:25:36;102795.50;;;1.38;81.63
32033;BME280;31720;52.638;9.216;2023-04-04T01:28:38;102797.97;;;1.32;80.08
32033;BME280;31720;52.638;9.216;2023-04-04T01:31:42;102792.03;;;1.37;82.14
32033;BME280;31720;52.638;9.216;2023-04-04T01:34:54;102798.19;;;1.44;81.80
32033;BME280;31720;52.638;9.216;2023-04-04T01:38:07;102796.44;;;1.41;81.02
32033;BME280;31720;52.638;9.216;2023-04-04T01:41:16;102792.91;;;1.38;80.85
32033;BME280;31720;52.638;9.216;2023-04-04T01:44:19;102789.47;;;1.39;81.57
32033;BME280;31720;52.638;9.216;2023-04-04T01:47:21;102786.81;;;1.36;81.52
32033;BME280;31720;52.638;9.216;2023-04-04T01:50:24;102785.06;;;1.35;81.12
32033;BME280;31720;52.638;9.216;2023-04-04T01:53:25;102786.78;;;1.33;81.54
32033;BME280;31720;52.638;9.216;2023-04-04T01:56:28;102775.50;;;1.31;81.42
32033;BME280;31720;52.638;9.216;2023-04-04T01:59:29;102772.91;;;1.29;81.83
32033;BME280;31720;52.638;9.216;2023-04-04T02:02:31;102783.34;;;1.34;81.67
32033;BME280;31720;52.638;9.216;2023-04-04T02:05:32;102781.47;;;1.26;80.59
32033;BME280;31720;52.638;9.216;2023-04-04T02:08:33;102779.59;;;1.18;81.05
32033;BME280;31720;52.638;9.216;2023-04-04T02:11:36;102771.63;;;1.07;81.81
32033;BME280;31720;52.638;9.216;2023-04-04T02:14:38;102772.59;;;1.12;82.28
32033;BME280;31720;52.638;9.216;2023-04-04T02:17:39;102778.59;;;1.10;82.39
32033;BME280;31720;52.638;9.216;2023-04-04T02:20:42;102774.25;;;1.09;83.09
32033;BME280;31720;52.638;9.216;2023-04-04T02:23:43;102768.09;;;1.02;83.65
32033;BME280;31720;52.638;9.216;2023-04-04T02:26:46;102764.53;;;0.95;84.38
32033;BME280;31720;52.638;9.216;2023-04-04T02:29:47;102771.44;;;0.96;83.82
32033;BME280;31720;52.638;9.216;2023-04-04T02:32:48;102763.59;;;0.92;84.68
32033;BME280;31720;52.638;9.216;2023-04-04T02:35:50;102758.44;;;0.95;84.90
32033;BME280;31720;52.638;9.216;2023-04-04T02:38:51;102749.72;;;0.90;84.45
32033;BME280;31720;52.638;9.216;2023-04-04T02:41:54;102749.69;;;0.87;85.78
32033;BME280;31720;52.638;9.216;2023-04-04T02:44:55;102742.81;;;0.87;86.32
32033;BME280;31720;52.638;9.216;2023-04-04T02:47:57;102752.38;;;0.91;86.45
32033;BME280;31720;52.638;9.216;2023-04-04T02:50:58;102742.91;;;0.93;86.79
32033;BME280;31720;52.638;9.216;2023-04-04T02:54:00;102743.78;;;0.94;87.19
32033;BME280;31720;52.638;9.216;2023-04-04T02:57:03;102748.16;;;0.98;86.46
32033;BME280;31720;52.638;9.216;2023-04-04T03:00:06;102741.16;;;0.92;86.42
32033;BME280;31720;52.638;9.216;2023-04-04T03:03:08;102741.84;;;0.82;86.76
32033;BME280;31720;52.638;9.216;2023-04-04T03:06:09;102748.69;;;0.80;88.26
32033;BME280;31720;52.638;9.216;2023-04-04T03:09:14;102728.94;;;0.84;88.23
32033;BME280;31720;52.638;9.216;2023-04-04T03:12:18;102739.22;;;0.81;87.75
32033;BME280;31720;52.638;9.216;2023-04-04T03:15:20;102738.44;;;0.85;88.25
32033;BME280;31720;52.638;9.216;2023-04-04T03:18:21;102731.44;;;0.81;87.44
32033;BME280;31720;52.638;9.216;2023-04-04T03:21:23;102731.50;;;0.84;87.67
32033;BME280;31720;52.638;9.216;2023-04-04T03:24:25;102735.84;;;0.85;87.27
32033;BME280;31720;52.638;9.216;2023-04-04T03:27:29;102734.88;;;0.78;87.62
32033;BME280;31720;52.638;9.216;2023-04-04T03:30:31;102727.63;;;0.62;87.27
32033;BME280;31720;52.638;9.216;2023-04-04T03:33:34;102729.28;;;0.58;86.79
32033;BME280;31720;52.638;9.216;2023-04-04T03:36:36;102723.47;;;0.68;87.61
32033;BME280;31720;52.638;9.216;2023-04-04T03:39:38;102728.56;;;0.65;86.27
32033;BME280;31720;52.638;9.216;2023-04-04T03:42:41;102735.59;;;0.72;85.53
32033;BME280;31720;52.638;9.216;2023-04-04T03:45:42;102726.06;;;0.68;85.41
32033;BME280;31720;52.638;9.216;2023-04-04T03:48:43;102723.31;;;0.61;85.67
32033;BME280;31720;52.638;9.216;2023-04-04T03:51:45;102723.13;;;0.52;86.13
32033;BME280;31720;52.638;9.216;2023-04-04T03:54:46;102732.41;;;0.42;85.74
32033;BME280;31720;52.638;9.216;2023-04-04T03:57:51;102725.72;;;0.52;85.88
32033;BME280;31720;52.638;9.216;2023-04-04T04:00:52;102722.38;;;0.59;85.85
32033;BME280;31720;52.638;9.216;2023-04-04T04:03:53;102726.75;;;0.61;84.57
32033;BME280;31720;52.638;9.216;2023-04-04T04:06:55;102723.28;;;0.59;84.59
32033;BME280;31720;52.638;9.216;2023-04-04T04:09:57;102712.84;;;0.55;84.99
32033;BME280;31720;52.638;9.216;2023-04-04T04:13:00;102717.97;;;0.52;86.02
32033;BME280;31720;52.638;9.216;2023-04-04T04:16:02;102717.97;;;0.52;87.08
32033;BME280;31720;52.638;9.216;2023-04-04T04:19:03;102711.94;;;0.54;87.01
32033;BME280;31720;52.638;9.216;2023-04-04T04:22:05;102716.16;;;0.49;87.35
32033;BME280;31720;52.638;9.216;2023-04-04T04:25:07;102714.50;;;0.51;87.67
32033;BME280;31720;52.638;9.216;2023-04-04T04:28:10;102713.59;;;0.49;88.04
32033;BME280;31720;52.638;9.216;2023-04-04T04:31:11;102703.66;;;0.27;87.84
32033;BME280;31720;52.638;9.216;2023-04-04T04:34:12;102701.00;;;0.23;89.74
32033;BME280;31720;52.638;9.216;2023-04-04T04:37:14;102710.69;;;0.32;90.96
32033;BME280;31720;52.638;9.216;2023-04-04T04:40:16;102702.19;;;0.41;90.28
32033;BME280;31720;52.638;9.216;2023-04-04T04:43:19;102710.91;;;0.44;89.17
32033;BME280;31720;52.638;9.216;2023-04-04T04:46:20;102711.63;;;0.37;88.44
32033;BME280;31720;52.638;9.216;2023-04-04T04:49:22;102712.44;;;0.35;87.95
32033;BME280;31720;52.638;9.216;2023-04-04T04:52:23;102719.41;;;0.37;88.25
32033;BME280;31720;52.638;9.216;2023-04-04T04:55:24;102720.09;;;0.30;89.64
32033;BME280;31720;52.638;9.216;2023-04-04T04:58:28;102727.94;;;0.33;89.69
32033;BME280;31720;52.638;9.216;2023-04-04T05:01:29;102718.19;;;0.21;90.93
32033;BME280;31720;52.638;9.216;2023-04-04T05:04:31;102718.44;;;0.32;90.98
32033;BME280;31720;52.638;9.216;2023-04-04T05:07:32;102717.50;;;0.29;89.92
32033;BME280;31720;52.638;9.216;2023-04-04T05:10:34;102716.66;;;0.31;91.46
32033;BME280;31720;52.638;9.216;2023-04-04T05:13:36;102728.91;;;0.38;91.89
32033;BME280;31720;52.638;9.216;2023-04-04T05:16:39;102721.22;;;0.41;92.29
32033;BME280;31720;52.638;9.216;2023-04-04T05:19:40;102719.34;;;0.36;92.56
32033;BME280;31720;52.638;9.216;2023-04-04T05:22:42;102721.94;;;0.36;91.52
32033;BME280;31720;52.638;9.216;2023-04-04T05:25:44;102726.91;;;0.27;90.93
32033;BME280;31720;52.638;9.216;2023-04-04T05:28:46;102732.03;;;0.23;92.18
32033;BME280;31720;52.638;9.216;2023-04-04T05:31:48;102736.53;;;0.32;92.79
32033;BME280;31720;52.638;9.216;2023-04-04T05:34:49;102740.09;;;0.37;92.98
32033;BME280;31720;52.638;9.216;2023-04-04T05:37:51;102738.38;;;0.39;91.82
32033;BME280;31720;52.638;9.216;2023-04-04T05:40:52;102746.88;;;0.32;91.11
32033;BME280;31720;52.638;9.216;2023-04-04T05:43:55;102744.31;;;0.34;91.38
32033;BME280;31720;52.638;9.216;2023-04-04T05:46:56;102756.31;;;0.32;90.63
32033;BME280;31720;52.638;9.216;2023-04-04T05:49:57;102751.06;;;0.27;90.77
32033;BME280;31720;52.638;9.216;2023-04-04T05:52:59;102759.75;;;0.31;91.54
32033;BME280;31720;52.638;9.216;2023-04-04T05:56:02;102750.44;;;0.37;92.47
32033;BME280;31720;52.638;9.216;2023-04-04T05:59:04;102752.16;;;0.38;91.63
32033;BME280;31720;52.638;9.216;2023-04-04T06:02:06;102743.44;;;0.33;90.70
32033;BME280;31720;52.638;9.216;2023-04-04T06:05:08;102749.78;;;0.49;91.78
32033;BME280;31720;52.638;9.216;2023-04-04T06:08:09;102749.94;;;0.55;90.85
32033;BME280;31720;52.638;9.216;2023-04-04T06:11:11;102751.69;;;0.56;91.21
32033;BME280;31720;52.638;9.216;2023-04-04T06:14:13;102753.44;;;0.59;90.76
32033;BME280;31720;52.638;9.216;2023-04-04T06:17:15;102747.47;;;0.63;90.11
32033;BME280;31720;52.638;9.216;2023-04-04T06:20:16;102744.94;;;0.64;90.07
32033;BME280;31720;52.638;9.216;2023-04-04T06:23:20;102760.50;;;0.67;89.43
32033;BME280;31720;52.638;9.216;2023-04-04T06:26:21;102751.09;;;0.69;90.88
32033;BME280;31720;52.638;9.216;2023-04-04T06:29:24;102751.00;;;0.66;90.29
32033;BME280;31720;52.638;9.216;2023-04-04T06:32:25;102756.16;;;0.65;90.53
32033;BME280;31720;52.638;9.216;2023-04-04T06:35:27;102750.22;;;0.70;89.27
32033;BME280;31720;52.638;9.216;2023-04-04T06:38:28;102755.50;;;0.75;88.35
32033;BME280;31720;52.638;9.216;2023-04-04T06:41:29;102760.59;;;0.72;89.21
32033;BME280;31720;52.638;9.216;2023-04-04T06:44:32;102760.91;;;0.87;89.32
32033;BME280;31720;52.638;9.216;2023-04-04T06:47:33;102760.16;;;0.93;88.12
32033;BME280;31720;52.638;9.216;2023-04-04T06:50:35;102760.16;;;0.94;87.27
32033;BME280;31720;52.638;9.216;2023-04-04T06:53:36;102760.31;;;1.00;87.51
32033;BME280;31720;52.638;9.216;2023-04-04T06:56:38;102761.38;;;1.12;87.73
32033;BME280;31720;52.638;9.216;2023-04-04T06:59:41;102768.50;;;1.25;88.90
32033;BME280;31720;52.638;9.216;2023-04-04T07:02:42;102765.94;;;1.26;88.82
32033;BME280;31720;52.638;9.216;2023-04-04T07:05:44;102760.81;;;1.30;88.01
32033;BME280;31720;52.638;9.216;2023-04-04T07:08:46;102767.88;;;1.37;87.43
32033;BME280;31720;52.638;9.216;2023-04-04T07:11:47;102768.69;;;1.36;88.22
32033;BME280;31720;52.638;9.216;2023-04-04T07:14:50;102771.47;;;1.46;88.49
32033;BME280;31720;52.638;9.216;2023-04-04T07:17:51;102761.22;;;1.52;87.66
32033;BME280;31720;52.638;9.216;2023-04-04T07:20:53;102763.94;;;1.60;87.55
32033;BME280;31720;52.638;9.216;2023-04-04T07:23:54;102757.09;;;1.64;87.51
32033;BME280;31720;52.638;9.216;2023-04-04T07:26:56;102753.78;;;1.74;86.90
32033;BME280;31720;52.638;9.216;2023-04-04T07:29:58;102750.41;;;1.78;87.08
32033;BME280;31720;52.638;9.216;2023-04-04T07:33:00;102753.13;;;1.87;87.55
32033;BME280;31720;52.638;9.216;2023-04-04T07:36:03;102748.00;;;1.93;85.54
32033;BME280;31720;52.638;9.216;2023-04-04T07:39:05;102747.34;;;2.05;84.95
32033;BME280;31720;52.638;9.216;2023-04-04T07:42:07;102756.91;;;2.11;84.51
32033;BME280;31720;52.638;9.216;2023-04-04T07:45:10;102756.13;;;2.15;83.47
32033;BME280;31720;52.638;9.216;2023-04-04T07:48:11;102759.69;;;2.24;81.17
32033;BME280;31720;52.638;9.216;2023-04-04T07:51:13;102757.22;;;2.34;81.48
32033;BME280;31720;52.638;9.216;2023-04-04T07:54:15;102757.34;;;2.41;80.28
32033;BME280;31720;52.638;9.216;2023-04-04T07:57:16;102760.81;;;2.45;78.72
32033;BME280;31720;52.638;9.216;2023-04-04T08:00:20;102756.53;;;2.47;76.99
32033;BME280;31720;52.638;9.216;2023-04-04T08:03:24;102757.47;;;2.53;77.18
32033;BME280;31720;52.638;9.216;2023-04-04T08:06:26;102758.44;;;2.60;77.82
32033;BME280;31720;52.638;9.216;2023-04-04T08:09:27;102755.78;;;2.57;76.91
32033;BME280;31720;52.638;9.216;2023-04-04T08:12:33;102759.41;;;2.68;77.72
32033;BME280;31720;52.638;9.216;2023-04-04T08:15:36;102754.22;;;2.70;75.18
32033;BME280;31720;52.638;9.216;2023-04-04T08:18:37;102753.41;;;2.77;75.81
32033;BME280;31720;52.638;9.216;2023-04-04T08:21:38;102758.66;;;2.80;76.74
32033;BME280;31720;52.638;9.216;2023-04-04T08:24:40;102756.97;;;2.82;77.19
32033;BME280;31720;52.638;9.216;2023-04-04T08:27:41;102752.69;;;2.89;75.51
32033;BME280;31720;52.638;9.216;2023-04-04T08:30:45;102747.59;;;2.98;75.03
32033;BME280;31720;52.638;9.216;2023-04-04T08:33:46;102749.38;;;3.02;74.25
32033;BME280;31720;52.638;9.216;2023-04-04T08:36:48;102744.25;;;3.10;71.86
32033;BME280;31720;52.638;9.216;2023-04-04T08:39:49;102735.69;;;3.20;72.53
32033;BME280;31720;52.638;9.216;2023-04-04T08:42:51;102731.41;;;3.25;68.68
32033;BME280;31720;52.638;9.216;2023-04-04T08:45:55;102733.22;;;3.32;70.08
32033;BME280;31720;52.638;9.216;2023-04-04T08:48:58;102727.22;;;3.41;67.74
32033;BME280;31720;52.638;9.216;2023-04-04T08:52:02;102725.44;;;3.38;66.67
32033;BME280;31720;52.638;9.216;2023-04-04T08:55:04;102722.00;;;3.39;67.86
32033;BME280;31720;52.638;9.216;2023-04-04T08:58:07;102724.66;;;3.47;66.99
32033;BME280;31720;52.638;9.216;2023-04-04T09:01:11;102719.53;;;3.54;66.44
32033;BME280;31720;52.638;9.216;2023-04-04T09:04:12;102728.19;;;3.56;66.87
32033;BME280;31720;52.638;9.216;2023-04-04T09:07:14;102716.03;;;3.52;63.87
32033;BME280;31720;52.638;9.216;2023-04-04T09:10:16;102723.03;;;3.61;61.30
32033;BME280;31720;52.638;9.216;2023-04-04T09:13:18;102714.44;;;3.70;65.39
32033;BME280;31720;52.638;9.216;2023-04-04T09:16:21;102718.88;;;3.86;66.42
32033;BME280;31720;52.638;9.216;2023-04-04T09:19:22;102717.16;;;3.88;65.19
32033;BME280;31720;52.638;9.216;2023-04-04T09:22:25;102715.38;;;3.83;63.37
32033;BME280;31720;52.638;9.216;2023-04-04T09:25:27;102726.72;;;3.92;62.53
32033;BME280;31720;52.638;9.216;2023-04-04T09:28:28;102713.78;;;4.04;63.77
32033;BME280;31720;52.638;9.216;2023-04-04T09:31:31;102710.41;;;4.24;63.95
32033;BME280;31720;52.638;9.216;2023-04-04T09:34:34;102715.59;;;4.25;62.43
32033;BME280;31720;52.638;9.216;2023-04-04T09:37:37;102711.25;;;4.20;62.96
32033;BME280;31720;52.638;9.216;2023-04-04T09:40:41;102715.63;;;4.28;63.85
32033;BME280;31720;52.638;9.216;2023-04-04T09:43:44;102711.25;;;4.18;58.99
32033;BME280;31720;52.638;9.216;2023-04-04T09:46:47;102708.69;;;4.29;60.29
32033;BME280;31720;52.638;9.216;2023-04-04T09:49:51;102715.75;;;4.54;63.09
32033;BME280;31720;52.638;9.216;2023-04-04T09:52:55;102706.22;;;4.66;61.78
32033;BME280;31720;52.638;9.216;2023-04-04T09:55:57;102708.84;;;4.79;64.11
32033;BME280;31720;52.638;9.216;2023-04-04T09:58:59;102706.28;;;4.98;63.80
32033;BME280;31720;52.638;9.216;2023-04-04T10:02:02;102702.78;;;4.94;62.63
32033;BME280;31720;52.638;9.216;2023-04-04T10:05:04;102692.38;;;4.93;62.24
32033;BME280;31720;52.638;9.216;2023-04-04T10:08:14;102701.94;;;4.91;62.17
32033;BME280;31720;52.638;9.216;2023-04-04T10:11:26;102692.38;;;4.94;61.75
32033;BME280;31720;52.638;9.216;2023-04-04T10:14:33;102687.13;;;4.80;58.94
32033;BME280;31720;52.638;9.216;2023-04-04T10:17:37;102698.47;;;4.96;57.93
32033;BME280;31720;52.638;9.216;2023-04-04T10:20:39;102691.53;;;5.04;59.15
32033;BME280;31720;52.638;9.216;2023-04-04T10:23:44;102684.56;;;5.16;61.51
32033;BME280;31720;52.638;9.216;2023-04-04T10:26:45;102683.72;;;5.18;59.98
32033;BME280;31720;52.638;9.216;2023-04-04T10:29:47;102678.50;;;5.12;57.27
32033;BME280;31720;52.638;9.216;2023-04-04T10:32:56;102677.63;;;5.10;57.80
32033;BME280;31720;52.638;9.216;2023-04-04T10:36:02;102674.16;;;5.20;59.82
32033;BME280;31720;52.638;9.216;2023-04-04T10:39:12;102680.22;;;5.47;59.67
32033;BME280;31720;52.638;9.216;2023-04-04T10:42:14;102676.69;;;5.71;58.41
32033;BME280;31720;52.638;9.216;2023-04-04T10:45:16;102673.22;;;5.78;56.42
32033;BME280;31720;52.638;9.216;2023-04-04T10:48:19;102666.28;;;5.72;54.30
32033;BME280;31720;52.638;9.216;2023-04-04T10:51:22;102671.47;;;5.86;57.57
32033;BME280;31720;52.638;9.216;2023-04-04T10:54:24;102677.53;;;5.90;54.76
32033;BME280;31720;52.638;9.216;2023-04-04T10:57:28;102668.00;;;5.79;55.65
32033;BME280;31720;52.638;9.216;2023-04-04T11:00:30;102661.06;;;5.66;53.83
32033;BME280;31720;52.638;9.216;2023-04-04T11:07:15;102650.56;;;5.98;56.80
32033;BME280;31720;52.638;9.216;2023-04-04T11:10:21;102645.34;;;5.98;55.06
32033;BME280;31720;52.638;9.216;2023-04-04T11:13:25;102643.59;;;6.05;56.85
32033;BME280;31720;52.638;9.216;2023-04-04T11:16:42;102643.31;;;6.60;58.03
32033;BME280;31720;52.638;9.216;2023-04-04T11:19:58;102635.47;;;6.60;55.35
32033;BME280;31720;52.638;9.216;2023-04-04T11:23:07;102635.44;;;6.63;53.82
32033;BME280;31720;52.638;9.216;2023-04-04T11:26:09;102635.50;;;6.54;53.71
32033;BME280;31720;52.638;9.216;2023-04-04T11:29:19;102618.91;;;6.64;51.69
32033;BME280;31720;52.638;9.216;2023-04-04T11:32:40;102624.09;;;6.67;54.46
32033;BME280;31720;52.638;9.216;2023-04-04T11:35:48;102625.50;;;7.11;56.66
32033;BME280;31720;52.638;9.216;2023-04-04T11:38:50;102624.41;;;7.35;55.76
32033;BME280;31720;52.638;9.216;2023-04-04T11:41:54;102604.28;;;7.43;51.52
32033;BME280;31720;52.638;9.216;2023-04-04T11:45:02;102610.69;;;7.10;55.12
32033;BME280;31720;52.638;9.216;2023-04-04T11:48:04;102609.03;;;7.01;52.33
32033;BME280;31720;52.638;9.216;2023-04-04T11:51:07;102612.34;;;7.17;51.68
32033;BME280;31720;52.638;9.216;2023-04-04T11:54:12;102605.28;;;7.30;52.02
32033;BME280;31720;52.638;9.216;2023-04-04T11:57:16;102609.97;;;7.80;50.86
32033;BME280;31720;52.638;9.216;2023-04-04T12:00:28;102601.25;;;7.80;51.21
32033;BME280;31720;52.638;9.216;2023-04-04T12:03:30;102602.00;;;7.91;49.43
32033;BME280;31720;52.638;9.216;2023-04-04T12:06:33;102595.13;;;7.81;47.35
32033;BME280;31720;52.638;9.216;2023-04-04T12:09:37;102598.63;;;7.81;48.39
32033;BME280;31720;52.638;9.216;2023-04-04T12:12:38;102587.78;;;8.10;50.65
32033;BME280;31720;52.638;9.216;2023-04-04T12:15:41;102586.16;;;8.62;50.41
32033;BME280;31720;52.638;9.216;2023-04-04T12:18:43;102581.25;;;8.95;51.33
32033;BME280;31720;52.638;9.216;2023-04-04T12:21:46;102575.00;;;9.03;48.88
32033;BME280;31720;52.638;9.216;2023-04-04T12:24:47;102567.91;;;9.10;46.25
32033;BME280;31720;52.638;9.216;2023-04-04T12:27:50;102561.63;;;9.19;47.72
32033;BME280;31720;52.638;9.216;2023-04-04T12:30:52;102564.97;;;9.27;47.35
32033;BME280;31720;52.638;9.216;2023-04-04T12:33:54;102557.84;;;9.33;48.69
32033;BME280;31720;52.638;9.216;2023-04-04T12:36:57;102560.25;;;8.98;45.58
32033;BME280;31720;52.638;9.216;2023-04-04T12:40:00;102557.97;;;9.26;49.39
32033;BME280;31720;52.638;9.216;2023-04-04T12:43:06;102546.63;;;9.25;45.46
32033;BME280;31720;52.638;9.216;2023-04-04T12:46:08;102537.69;;;9.35;46.32
32033;BME280;31720;52.638;9.216;2023-04-04T12:49:10;102522.69;;;9.84;49.74
32033;BME280;31720;52.638;9.216;2023-04-04T12:52:17;102520.25;;;10.15;48.06
32033;BME280;31720;52.638;9.216;2023-04-04T12:55:21;102515.66;;;10.25;47.93
32033;BME280;31720;52.638;9.216;2023-04-04T12:58:24;102513.78;;;10.30;45.60
32033;BME280;31720;52.638;9.216;2023-04-04T13:01:25;102500.38;;;10.42;46.67
32033;BME280;31720;52.638;9.216;2023-04-04T13:04:27;102504.00;;;10.72;46.09
32033;BME280;31720;52.638;9.216;2023-04-04T13:07:37;102497.72;;;10.42;42.41
32033;BME280;31720;52.638;9.216;2023-04-04T13:10:55;102495.50;;;10.27;44.72
32033;BME280;31720;52.638;9.216;2023-04-04T13:14:01;102494.31;;;10.38;44.75
32033;BME280;31720;52.638;9.216;2023-04-04T13:17:04;102486.25;;;10.07;45.97
32033;BME280;31720;52.638;9.216;2023-04-04T13:20:07;102493.69;;;9.88;45.73
32033;BME280;31720;52.638;9.216;2023-04-04T13:23:11;102492.88;;;9.45;42.36
32033;BME280;31720;52.638;9.216;2023-04-04T13:26:13;102489.91;;;9.63;44.38
32033;BME280;31720;52.638;9.216;2023-04-04T13:29:14;102477.22;;;9.40;42.90
32033;BME280;31720;52.638;9.216;2023-04-04T13:32:15;102473.34;;;9.58;44.11
32033;BME280;31720;52.638;9.216;2023-04-04T13:35:17;102468.13;;;9.97;43.08
32033;BME280;31720;52.638;9.216;2023-04-04T13:38:20;102463.84;;;9.93;40.44
32033;BME280;31720;52.638;9.216;2023-04-04T13:41:22;102462.59;;;9.70;42.13
32033;BME280;31720;52.638;9.216;2023-04-04T13:44:23;102457.50;;;9.62;44.16
32033;BME280;31720;52.638;9.216;2023-04-04T13:47:25;102455.03;;;9.56;42.35
32033;BME280;31720;52.638;9.216;2023-04-04T13:50:29;102451.34;;;9.65;43.56
32033;BME280;31720;52.638;9.216;2023-04-04T13:53:32;102445.53;;;9.89;46.08
32033;BME280;31720;52.638;9.216;2023-04-04T13:56:33;102433.06;;;10.36;44.80
32033;BME280;31720;52.638;9.216;2023-04-04T13:59:35;102433.06;;;10.36;42.19
32033;BME280;31720;52.638;9.216;2023-04-04T14:02:36;102429.59;;;10.34;43.85
32033;BME280;31720;52.638;9.216;2023-04-04T14:05:38;102428.50;;;10.43;42.39
32033;BME280;31720;52.638;9.216;2023-04-04T14:08:41;102428.34;;;10.49;41.15
32033;BME280;31720;52.638;9.216;2023-04-04T14:11:42;102425.09;;;10.02;40.76
32033;BME280;31720;52.638;9.216;2023-04-04T14:14:43;102417.94;;;9.72;40.13
32033;BME280;31720;52.638;9.216;2023-04-04T14:17:45;102414.00;;;9.91;43.25
32033;BME280;31720;52.638;9.216;2023-04-04T14:20:46;102412.06;;;9.99;40.83
32033;BME280;31720;52.638;9.216;2023-04-04T14:23:49;102408.38;;;9.69;42.86
32033;BME280;31720;52.638;9.216;2023-04-04T14:26:50;102401.16;;;9.79;46.04
32033;BME280;31720;52.638;9.216;2023-04-04T14:29:52;102403.41;;;10.31;43.38
32033;BME280;31720;52.638;9.216;2023-04-04T14:32:53;102406.91;;;10.30;42.36
32033;BME280;31720;52.638;9.216;2023-04-04T14:35:54;102410.41;;;10.31;40.96
32033;BME280;31720;52.638;9.216;2023-04-04T14:38:57;102410.03;;;9.73;41.15
32033;BME280;31720;52.638;9.216;2023-04-04T14:41:58;102411.06;;;9.68;42.07
32033;BME280;31720;52.638;9.216;2023-04-04T14:45:00;102396.72;;;9.81;45.69
32033;BME280;31720;52.638;9.216;2023-04-04T14:48:06;102396.59;;;9.85;46.72
32033;BME280;31720;52.638;9.216;2023-04-04T14:51:07;102394.75;;;9.90;44.67
32033;BME280;31720;52.638;9.216;2023-04-04T14:54:10;102390.38;;;9.89;44.80
32033;BME280;31720;52.638;9.216;2023-04-04T14:57:12;102392.13;;;9.90;46.21
32033;BME280;31720;52.638;9.216;2023-04-04T15:00:14;102383.25;;;9.95;44.68
32033;BME280;31720;52.638;9.216;2023-04-04T15:03:19;102379.84;;;9.91;43.14
32033;BME280;31720;52.638;9.216;2023-04-04T15:06:21;102383.84;;;9.70;46.03
32033;BME280;31720;52.638;9.216;2023-04-04T15:09:23;102376.94;;;9.68;46.08
32033;BME280;31720;52.638;9.216;2023-04-04T15:12:25;102373.31;;;9.72;44.39
32033;BME280;31720;52.638;9.216;2023-04-04T15:15:26;102370.50;;;9.79;47.31
32033;BME280;31720;52.638;9.216;2023-04-04T15:18:29;102368.84;;;9.77;43.94
32033;BME280;31720;52.638;9.216;2023-04-04T15:21:30;102369.72;;;9.76;44.13
32033;BME280;31720;52.638;9.216;2023-04-04T15:24:33;102371.25;;;9.84;46.17
32033;BME280;31720;52.638;9.216;2023-04-04T15:27:34;102368.50;;;9.90;45.77
32033;BME280;31720;52.638;9.216;2023-04-04T15:30:36;102369.13;;;10.00;46.24
32033;BME280;31720;52.638;9.216;2023-04-04T15:33:37;102364.13;;;9.89;44.17
32033;BME280;31720;52.638;9.216;2023-04-04T15:36:39;102369.75;;;10.10;47.45
32033;BME280;31720;52.638;9.216;2023-04-04T15:39:43;102356.91;;;9.99;43.30
32033;BME280;31720;52.638;9.216;2023-04-04T15:42:46;102359.63;;;9.59;42.81
32033;BME280;31720;52.638;9.216;2023-04-04T15:45:47;102362.03;;;9.66;45.92
32033;BME280;31720;52.638;9.216;2023-04-04T15:48:49;102352.28;;;9.73;44.11
32033;BME280;31720;52.638;9.216;2023-04-04T15:51:51;102348.06;;;9.68;44.15
32033;BME280;31720;52.638;9.216;2023-04-04T15:54:54;102342.69;;;9.72;44.84
32033;BME280;31720;52.638;9.216;2023-04-04T15:57:55;102351.06;;;9.49;44.86
32033;BME280;31720;52.638;9.216;2023-04-04T16:00:57;102343.91;;;9.57;45.95
32033;BME280;31720;52.638;9.216;2023-04-04T16:03:58;102348.28;;;9.57;45.46
32033;BME280;31720;52.638;9.216;2023-04-04T16:06:59;102352.72;;;9.53;42.88
32033;BME280;31720;52.638;9.216;2023-04-04T16:10:03;102355.63;;;9.43;41.55